Time;durP1;ratioP1;P1;durP2;ratioP2;P2;SDS_P1;SDS_P2;PMS_P1;PMS_P2;Temp;Humidity;BMP_temperature;BMP_pressure;BME280_temperature;BME280_humidity;BME280_pressure;Samples;Min_cycle;Max_cycle;Signal;HPM_P1;HPM_P2
2023/02/04 00:00:47;;;;;;;26.08;4.60;;;;;;;7.23;95.61;102860.25;4998995;28;21421;-79
2023/02/04 00:03:15;;;;;;;30.35;5.78;;;;;;;7.20;95.80;102857.84;5010235;28;20042;-79
2023/02/04 00:05:41;;;;;;;20.25;3.85;;;;;;;7.18;95.43;102852.78;4992881;28;20033;-79
2023/02/04 00:08:06;;;;;;;17.85;3.75;;;;;;;7.18;95.51;102870.00;4990382;28;20049;-77
2023/02/04 00:10:32;;;;;;;27.75;3.58;;;;;;;7.15;95.77;102875.31;5010740;28;20126;-78
2023/02/04 00:12:57;;;;;;;23.77;4.13;;;;;;;7.21;95.26;102873.25;5009633;28;20103;-80
2023/02/04 00:15:23;;;;;;;31.27;3.25;;;;;;;7.09;95.30;102885.97;5011725;28;20402;-79
2023/02/04 00:17:48;;;;;;;25.25;2.80;;;;;;;6.97;96.47;102880.56;4999032;28;20037;-80
2023/02/04 00:20:14;;;;;;;34.63;3.72;;;;;;;6.94;96.58;102891.03;5009369;28;20069;-79
2023/02/04 00:22:39;;;;;;;29.00;2.80;;;;;;;6.99;96.75;102901.94;5006327;28;20041;-79
2023/02/04 00:25:06;;;;;;;15.93;3.17;;;;;;;6.93;96.51;102896.25;5010630;28;20375;-80
2023/02/04 00:27:31;;;;;;;30.25;3.25;;;;;;;7.09;96.10;102893.72;4994555;28;20034;-80
2023/02/04 00:29:57;;;;;;;21.83;3.20;;;;;;;7.03;95.89;102892.31;5007916;28;20037;-79
2023/02/04 00:32:23;;;;;;;31.02;3.20;;;;;;;7.09;96.01;102891.13;5024299;28;20037;-80
2023/02/04 00:34:48;;;;;;;28.27;4.18;;;;;;;7.10;95.99;102895.38;5003176;28;20053;-79
2023/02/04 00:37:14;;;;;;;24.33;3.17;;;;;;;7.01;96.20;102901.88;5014118;28;20041;-80
2023/02/04 00:39:39;;;;;;;24.90;2.88;;;;;;;7.10;96.16;102903.09;5009965;28;20032;-78
2023/02/04 00:42:05;;;;;;;30.15;3.22;;;;;;;6.94;96.60;102900.53;4990421;28;20124;-80
2023/02/04 00:44:31;;;;;;;17.85;2.65;;;;;;;6.96;96.29;102906.44;5010394;28;20159;-80
2023/02/04 00:46:56;;;;;;;23.75;3.30;;;;;;;7.04;96.26;102901.69;4995065;28;20087;-80
2023/02/04 00:49:22;;;;;;;24.65;3.30;;;;;;;6.98;96.75;102904.59;5008042;28;20034;-79
2023/02/04 00:51:48;;;;;;;34.15;4.68;;;;;;;6.96;96.80;102912.41;5006588;28;20037;-80
2023/02/04 00:54:17;;;;;;;31.95;4.53;;;;;;;6.89;96.34;102911.06;5006597;28;20036;-80
2023/02/04 00:56:43;;;;;;;24.25;3.58;;;;;;;7.01;96.39;102914.78;5009220;28;20030;-79
2023/02/04 00:59:09;;;;;;;26.23;5.13;;;;;;;7.05;96.30;102915.44;4994731;28;20037;-80
2023/02/04 01:01:35;;;;;;;21.55;2.65;;;;;;;6.97;96.26;102921.84;5002580;28;20030;-79
2023/02/04 01:04:01;;;;;;;18.80;2.38;;;;;;;6.85;96.42;102919.06;5012518;28;20049;-79
2023/02/04 01:06:27;;;;;;;20.98;2.92;;;;;;;6.95;96.50;102920.22;4996063;28;20030;-79
2023/02/04 01:08:52;;;;;;;21.92;3.53;;;;;;;6.89;97.16;102917.97;5005196;28;20640;-78
2023/02/04 01:11:18;;;;;;;22.10;3.17;;;;;;;6.80;97.30;102922.72;5004719;28;20926;-80
2023/02/04 01:13:43;;;;;;;19.42;2.95;;;;;;;6.69;98.05;102911.28;5007299;28;20048;-80
2023/02/04 01:16:11;;;;;;;20.65;2.97;;;;;;;6.88;97.47;102924.88;4993530;28;20029;-78
2023/02/04 01:18:37;;;;;;;18.88;2.83;;;;;;;6.99;97.18;102921.75;5011030;28;20049;-79
2023/02/04 01:21:03;;;;;;;21.27;3.25;;;;;;;6.87;96.75;102932.69;4993552;28;20044;-79
2023/02/04 01:23:28;;;;;;;23.67;3.85;;;;;;;6.86;97.01;102929.31;5000716;28;20045;-80
2023/02/04 01:25:54;;;;;;;30.00;3.08;;;;;;;6.83;97.77;102922.53;5003425;28;20033;-79
2023/02/04 01:28:19;;;;;;;22.08;2.45;;;;;;;6.82;97.88;102938.13;4988663;28;20041;-79
2023/02/04 01:30:45;;;;;;;17.15;2.50;;;;;;;6.76;97.74;102936.69;4988843;28;20029;-79
2023/02/04 01:33:10;;;;;;;19.38;3.40;;;;;;;6.76;98.32;102944.41;5001891;28;20033;-80
2023/02/04 01:35:35;;;;;;;22.63;3.03;;;;;;;6.69;98.82;102943.06;4987721;28;20029;-80
2023/02/04 01:38:01;;;;;;;19.55;3.25;;;;;;;6.79;98.42;102944.25;5004154;28;20044;-80
2023/02/04 01:40:28;;;;;;;18.38;2.72;;;;;;;6.68;98.25;102943.13;5008175;28;20029;-80
2023/02/04 01:42:54;;;;;;;25.02;3.17;;;;;;;6.73;98.43;102944.56;5007064;28;20128;-80
2023/02/04 01:45:19;;;;;;;16.60;2.42;;;;;;;6.71;99.11;102954.13;5009056;28;20068;-80
2023/02/04 01:47:45;;;;;;;22.38;2.55;;;;;;;6.76;99.21;102940.97;5006034;28;20132;-77
2023/02/04 01:50:16;;;;;;;12.85;2.40;;;;;;;6.69;99.71;102939.66;5020826;28;20072;-79
2023/02/04 01:52:43;;;;;;;25.88;3.10;;;;;;;6.60;100.00;102941.78;5005624;28;20049;-80
2023/02/04 01:55:13;;;;;;;26.20;3.03;;;;;;;6.67;100.00;102946.59;5005373;28;20052;-78
2023/02/04 01:57:39;;;;;;;25.17;3.38;;;;;;;6.56;100.00;102957.47;5016716;28;20037;-80
2023/02/04 02:00:12;;;;;;;37.10;5.20;;;;;;;6.61;100.00;102952.91;4993173;28;20045;-79
2023/02/04 02:02:47;;;;;;;19.77;3.17;;;;;;;6.57;100.00;102957.41;5016182;28;20080;-80
2023/02/04 02:05:20;;;;;;;19.85;2.65;;;;;;;6.59;100.00;102955.59;4988426;28;20051;-79
2023/02/04 02:07:46;;;;;;;;;;;;;;;6.66;100.00;102961.25;5001474;28;20030;-80
2023/02/04 02:10:13;;;;;;;21.50;2.67;;;;;;;6.66;100.00;102966.41;4999051;28;19956;-79
2023/02/04 02:12:39;;;;;;;24.42;3.38;;;;;;;6.54;100.00;102975.59;5005128;28;20041;-79
2023/02/04 02:15:08;;;;;;;34.58;3.63;;;;;;;6.62;100.00;102982.94;4989508;28;20034;-79
2023/02/04 02:17:34;;;;;;;26.73;3.13;;;;;;;6.60;100.00;102974.47;5011904;28;20107;-80
2023/02/04 02:20:00;;;;;;;19.40;2.95;;;;;;;6.66;100.00;102984.47;4997667;28;20033;-79
2023/02/04 02:22:31;;;;;;;29.08;5.25;;;;;;;6.60;100.00;102988.19;5001248;28;20072;-78
2023/02/04 02:24:56;;;;;;;27.58;3.30;;;;;;;6.48;100.00;102983.66;5004080;28;20088;-79
2023/02/04 02:27:22;;;;;;;18.60;2.45;;;;;;;6.45;100.00;102981.22;5004919;28;20038;-80
2023/02/04 02:29:49;;;;;;;22.63;3.88;;;;;;;6.48;100.00;102987.94;4990833;28;20396;-80
2023/02/04 02:32:15;;;;;;;26.70;3.58;;;;;;;6.48;100.00;102993.09;4988109;28;20129;-78
2023/02/04 02:34:42;;;;;;;26.05;3.05;;;;;;;6.51;100.00;102990.38;5003788;28;20108;-79
2023/02/04 02:37:08;;;;;;;27.77;4.10;;;;;;;6.39;100.00;102990.06;5002378;28;20113;-79
2023/02/04 02:39:35;;;;;;;23.52;3.50;;;;;;;6.35;100.00;102995.47;4989396;28;20116;-80
2023/02/04 02:42:00;;;;;;;21.85;2.45;;;;;;;6.26;100.00;102994.16;5003581;28;20041;-79
2023/02/04 02:44:27;;;;;;;25.63;3.70;;;;;;;6.30;100.00;103000.84;4988128;28;20116;-79
2023/02/04 02:46:53;;;;;;;23.90;5.43;;;;;;;6.29;100.00;103003.47;5000746;28;20502;-78
2023/02/04 02:49:19;;;;;;;22.98;2.80;;;;;;;6.40;100.00;102996.06;5002648;28;20082;-80
2023/02/04 02:51:47;;;;;;;19.90;4.35;;;;;;;6.27;100.00;103002.72;4986311;28;20479;-79
2023/02/04 02:54:23;;;;;;;22.88;2.90;;;;;;;6.21;100.00;103006.41;4988715;28;20399;-79
2023/02/04 02:56:52;;;;;;;19.15;2.55;;;;;;;6.18;100.00;103011.75;5005846;28;20034;-78
2023/02/04 02:59:20;;;;;;;24.23;3.08;;;;;;;6.13;100.00;103009.38;4990966;28;20515;-79
2023/02/04 03:01:49;;;;;;;33.15;3.35;;;;;;;6.23;100.00;103018.34;4997408;28;20079;-79
2023/02/04 03:04:17;;;;;;;22.15;3.85;;;;;;;6.34;100.00;103024.72;4989172;28;20470;-80
2023/02/04 03:06:43;;;;;;;29.63;3.13;;;;;;;6.26;100.00;103024.25;5024989;28;20144;-79
2023/02/04 03:09:09;;;;;;;18.90;3.20;;;;;;;6.29;100.00;103024.94;4988853;28;20030;-79
2023/02/04 03:11:35;;;;;;;25.15;3.22;;;;;;;6.21;100.00;103024.47;5000731;28;20084;-78
2023/02/04 03:14:01;;;;;;;22.30;3.38;;;;;;;6.30;100.00;103018.03;4994036;28;20107;-80
2023/02/04 03:16:31;;;;;;;22.55;3.00;;;;;;;6.27;100.00;103026.72;4990808;28;20065;-80
2023/02/04 03:18:59;;;;;;;21.00;2.67;;;;;;;6.31;100.00;103023.13;5011815;28;20108;-80
2023/02/04 03:21:25;;;;;;;27.77;4.68;;;;;;;6.21;100.00;103021.88;4996667;28;20588;-79
2023/02/04 03:23:55;;;;;;;24.42;2.83;;;;;;;6.20;100.00;103015.06;4997189;28;20038;-78
2023/02/04 03:26:22;;;;;;;32.45;4.07;;;;;;;6.23;100.00;103022.63;5007102;28;20034;-80
2023/02/04 03:28:47;;;;;;;14.38;2.60;;;;;;;6.22;100.00;103013.25;5000506;28;20033;-78
2023/02/04 03:31:13;;;;;;;19.10;3.40;;;;;;;6.16;100.00;103029.84;4997320;28;20048;-80
2023/02/04 03:33:38;;;;;;;25.60;3.45;;;;;;;6.12;100.00;103023.16;4993332;28;20069;-79
2023/02/04 03:36:04;;;;;;;28.02;2.85;;;;;;;6.13;100.00;103013.69;4997351;28;20034;-80
2023/02/04 03:38:30;;;;;;;25.40;2.95;;;;;;;6.07;100.00;103029.44;5001471;28;20056;-79
2023/02/04 03:40:55;;;;;;;34.00;4.30;;;;;;;6.18;100.00;103025.44;4997471;28;20550;-79
2023/02/04 03:43:20;;;;;;;27.63;3.75;;;;;;;6.12;100.00;103032.63;4997662;28;20410;-80
2023/02/04 03:45:46;;;;;;;27.33;3.17;;;;;;;6.06;100.00;103031.16;5010271;28;20037;-79
2023/02/04 03:48:12;;;;;;;21.95;2.92;;;;;;;6.17;100.00;103033.25;4993841;28;20114;-80
2023/02/04 03:50:37;;;;;;;24.02;3.25;;;;;;;6.12;100.00;103038.63;5015736;28;20033;-80
2023/02/04 03:53:03;;;;;;;30.10;4.72;;;;;;;6.02;100.00;103043.34;4994968;28;20044;-79
2023/02/04 03:55:28;;;;;;;34.95;3.60;;;;;;;6.02;100.00;103043.34;5008487;28;20033;-79
2023/02/04 03:57:54;;;;;;;20.80;3.75;;;;;;;5.96;100.00;103046.22;5013449;28;20045;-79
2023/02/04 04:00:19;;;;;;;21.88;2.85;;;;;;;5.91;100.00;103040.41;4996536;28;20030;-80
2023/02/04 04:02:45;;;;;;;27.00;3.67;;;;;;;5.95;100.00;103042.00;5008565;28;20498;-79
2023/02/04 04:05:10;;;;;;;28.65;3.45;;;;;;;5.92;100.00;103046.41;5003892;28;20486;-79
2023/02/04 04:07:36;;;;;;;24.27;4.20;;;;;;;5.87;100.00;103045.78;5009535;28;20047;-79
2023/02/04 04:10:02;;;;;;;18.58;2.63;;;;;;;5.77;100.00;103053.94;5013523;28;20049;-80
2023/02/04 04:12:28;;;;;;;26.42;3.47;;;;;;;5.74;100.00;103048.91;5010149;28;20072;-80
2023/02/04 04:14:53;;;;;;;21.90;3.17;;;;;;;5.78;100.00;103058.19;5011375;28;20037;-79
2023/02/04 04:17:19;;;;;;;23.75;4.28;;;;;;;5.81;100.00;103064.91;5006307;28;20052;-80
2023/02/04 04:19:45;;;;;;;26.98;3.95;;;;;;;5.79;100.00;103067.56;4998243;28;20060;-79
2023/02/04 04:22:10;;;;;;;24.10;4.03;;;;;;;5.74;100.00;103071.25;5011169;28;20048;-80
2023/02/04 04:24:36;;;;;;;23.15;3.58;;;;;;;5.73;100.00;103067.03;5010046;28;20029;-77
2023/02/04 04:27:02;;;;;;;19.75;3.33;;;;;;;5.71;100.00;103069.66;4994990;28;20064;-80
2023/02/04 04:29:27;;;;;;;21.30;3.00;;;;;;;5.66;100.00;103075.00;5011455;28;20116;-80
2023/02/04 04:31:53;;;;;;;28.77;3.28;;;;;;;5.63;100.00;103066.56;4994487;28;20391;-80
2023/02/04 04:34:18;;;;;;;24.33;2.95;;;;;;;5.54;100.00;103072.97;5008745;28;20041;-79
2023/02/04 04:36:44;;;;;;;21.02;3.38;;;;;;;5.55;100.00;103076.38;4991821;28;20029;-80
2023/02/04 04:39:09;;;;;;;29.35;4.25;;;;;;;5.52;100.00;103067.06;5028563;28;20647;-80
2023/02/04 04:41:35;;;;;;;20.27;2.63;;;;;;;5.46;100.00;103072.47;5019734;28;20029;-79
2023/02/04 04:44:00;;;;;;;26.60;3.35;;;;;;;5.41;100.00;103072.69;5016626;28;20040;-80
2023/02/04 04:46:26;;;;;;;28.70;3.70;;;;;;;5.41;100.00;103071.84;5022714;28;20500;-79
2023/02/04 04:48:51;;;;;;;29.92;3.90;;;;;;;5.39;100.00;103069.34;5009652;28;20152;-80
2023/02/04 04:51:17;;;;;;;24.58;3.10;;;;;;;5.34;100.00;103075.59;4992794;28;20036;-80
2023/02/04 04:53:42;;;;;;;14.40;3.00;;;;;;;5.29;100.00;103085.22;4990557;28;20049;-79
2023/02/04 04:56:08;;;;;;;17.60;3.08;;;;;;;5.26;100.00;103087.03;4990503;28;20692;-79
2023/02/04 04:58:33;;;;;;;27.67;3.92;;;;;;;5.23;100.00;103089.72;5005227;28;20042;-79
2023/02/04 05:00:59;;;;;;;25.92;3.70;;;;;;;5.24;100.00;103090.59;4998783;28;20111;-79
2023/02/04 05:03:24;;;;;;;21.77;3.05;;;;;;;5.18;100.00;103090.81;5006854;28;20050;-80
2023/02/04 05:05:49;;;;;;;27.05;3.92;;;;;;;5.18;100.00;103090.81;5007880;28;20053;-80
2023/02/04 05:08:15;;;;;;;26.50;4.57;;;;;;;5.18;100.00;103086.53;5005232;28;20038;-79
2023/02/04 05:10:44;;;;;;;21.95;3.15;;;;;;;5.13;100.00;103096.16;5007176;28;20041;-79
2023/02/04 05:13:10;;;;;;;16.85;3.65;;;;;;;5.07;100.00;103097.25;4992358;28;20033;-79
2023/02/04 05:15:35;;;;;;;21.13;2.90;;;;;;;5.07;100.00;103099.00;5025475;28;20029;-79
2023/02/04 05:18:01;;;;;;;20.70;3.00;;;;;;;5.04;100.00;103104.28;5009252;28;20034;-79
2023/02/04 05:20:26;;;;;;;18.67;3.33;;;;;;;4.99;100.00;103101.91;4992854;28;20488;-79
2023/02/04 05:22:54;;;;;;;15.18;3.20;;;;;;;4.98;100.00;103100.22;5004961;28;20046;-79
2023/02/04 05:25:21;;;;;;;26.58;3.88;;;;;;;4.96;100.00;103107.16;5004007;28;20037;-79
2023/02/04 05:27:47;;;;;;;16.60;2.90;;;;;;;4.95;100.00;103102.06;5007329;28;20034;-78
2023/02/04 05:30:13;;;;;;;15.60;3.50;;;;;;;4.92;100.00;103097.06;5011191;28;20062;-79
2023/02/04 05:32:39;;;;;;;20.27;3.05;;;;;;;4.91;100.00;103097.97;5010697;28;20044;-79
2023/02/04 05:35:05;;;;;;;26.02;4.18;;;;;;;4.91;100.00;103116.78;5009969;28;20029;-79
2023/02/04 05:37:31;;;;;;;18.48;3.78;;;;;;;4.93;100.00;103114.16;5004176;28;20038;-79
2023/02/04 05:39:56;;;;;;;20.35;3.17;;;;;;;4.91;100.00;103114.22;5008925;28;20037;-79
2023/02/04 05:42:22;;;;;;;24.90;4.82;;;;;;;4.88;100.00;103116.94;4999651;28;20745;-79
2023/02/04 05:44:47;;;;;;;18.60;3.15;;;;;;;4.89;100.00;103121.16;5005706;28;20084;-79
2023/02/04 05:47:13;;;;;;;25.65;4.93;;;;;;;4.88;100.00;103129.78;5002741;28;20065;-79
2023/02/04 05:49:38;;;;;;;19.08;3.35;;;;;;;4.89;100.00;103128.88;5002011;28;20022;-79
2023/02/04 05:52:04;;;;;;;26.35;3.58;;;;;;;4.90;100.00;103139.97;5007234;28;20071;-79
2023/02/04 05:54:29;;;;;;;19.00;3.45;;;;;;;4.90;100.00;103145.13;4995295;28;20045;-79
2023/02/04 05:56:55;;;;;;;17.55;2.83;;;;;;;4.90;100.00;103140.84;5008389;28;20037;-80
2023/02/04 05:59:20;;;;;;;26.13;3.63;;;;;;;4.91;100.00;103150.22;5000871;28;20034;-79
2023/02/04 06:01:46;;;;;;;16.67;3.28;;;;;;;4.91;100.00;103147.63;5020002;28;20037;-79
2023/02/04 06:04:11;;;;;;;24.65;4.50;;;;;;;4.90;100.00;103152.84;4995504;28;20038;-80
2023/02/04 06:06:37;;;;;;;22.98;4.40;;;;;;;4.90;100.00;103153.69;4995310;28;20033;-79
2023/02/04 06:09:02;;;;;;;24.42;3.72;;;;;;;4.91;100.00;103162.25;5019487;28;20045;-79
2023/02/04 06:11:29;;;;;;;23.98;4.57;;;;;;;4.92;100.00;103161.34;5009944;28;20037;-79
2023/02/04 06:13:54;;;;;;;32.08;4.10;;;;;;;4.94;100.00;103172.41;5011264;28;20041;-79
2023/02/04 06:16:20;;;;;;;19.75;3.65;;;;;;;4.92;100.00;103158.78;5024977;28;20434;-78
2023/02/04 06:18:45;;;;;;;22.02;3.78;;;;;;;4.91;100.00;103159.66;4995729;28;20041;-79
2023/02/04 06:21:11;;;;;;;24.92;5.30;;;;;;;4.91;100.00;103164.81;5009886;28;20044;-79
2023/02/04 06:23:36;;;;;;;29.08;5.07;;;;;;;4.90;100.00;103169.13;4994932;28;20037;-79
2023/02/04 06:26:02;;;;;;;25.80;4.45;;;;;;;4.90;100.00;103176.84;4996105;28;20063;-78
2023/02/04 06:28:27;;;;;;;22.60;3.53;;;;;;;4.91;100.00;103177.66;5007220;28;20048;-79
2023/02/04 06:30:53;;;;;;;28.70;4.28;;;;;;;4.91;100.00;103178.50;4995698;28;20025;-80
2023/02/04 06:33:20;;;;;;;23.85;3.83;;;;;;;4.92;100.00;103176.78;4992231;28;20042;-79
2023/02/04 06:35:45;;;;;;;23.33;5.10;;;;;;;4.93;100.00;103170.72;5024878;28;20486;-79
2023/02/04 06:38:11;;;;;;;16.60;4.00;;;;;;;4.91;100.00;103167.38;4998900;28;20041;-79
2023/02/04 06:40:37;;;;;;;23.98;5.47;;;;;;;4.89;100.00;103172.56;4995974;28;20092;-79
2023/02/04 06:43:02;;;;;;;22.55;4.63;;;;;;;4.92;100.00;103174.22;5014248;28;20041;-79
2023/02/04 06:45:28;;;;;;;25.92;4.75;;;;;;;4.89;100.00;103177.72;4998061;28;20107;-79
2023/02/04 06:47:53;;;;;;;21.45;3.95;;;;;;;4.88;100.00;103173.50;4998683;28;20060;-79
2023/02/04 06:50:19;;;;;;;21.70;4.70;;;;;;;4.85;100.00;103174.44;5012854;28;20032;-79
2023/02/04 06:52:45;;;;;;;28.92;6.55;;;;;;;4.86;100.00;103181.25;5012289;28;20037;-79
2023/02/04 06:55:12;;;;;;;27.67;6.22;;;;;;;4.86;100.00;103191.53;5028209;28;20806;-79
2023/02/04 06:57:37;;;;;;;23.23;4.30;;;;;;;4.85;100.00;103191.59;5021344;28;20057;-80
2023/02/04 07:00:04;;;;;;;18.23;4.82;;;;;;;4.83;100.00;103194.22;5025926;28;20033;-79
2023/02/04 07:02:29;;;;;;;16.55;4.38;;;;;;;4.85;100.00;103192.44;5011044;28;20065;-80
2023/02/04 07:04:55;;;;;;;29.02;4.45;;;;;;;4.85;100.00;103200.13;4996240;28;20029;-79
2023/02/04 07:07:20;;;;;;;26.55;4.35;;;;;;;4.85;100.00;103199.31;5012318;28;20202;-78
2023/02/04 07:09:46;;;;;;;27.08;5.00;;;;;;;4.83;100.00;103196.81;5014288;28;20025;-79
2023/02/04 07:12:11;;;;;;;29.38;5.10;;;;;;;4.85;100.00;103196.75;5009022;28;20398;-79
2023/02/04 07:14:36;;;;;;;26.05;4.53;;;;;;;4.85;100.00;103200.13;5003257;28;20446;-79
2023/02/04 07:17:02;;;;;;;28.30;5.30;;;;;;;4.86;100.00;103199.25;5010495;28;20095;-79
2023/02/04 07:19:27;;;;;;;35.25;5.75;;;;;;;4.86;100.00;103204.41;4997181;28;20095;-79
2023/02/04 07:21:55;;;;;;;26.55;5.93;;;;;;;4.88;100.00;103204.34;5009928;28;20041;-80
2023/02/04 07:24:24;;;;;;;30.80;5.50;;;;;;;4.90;100.00;103207.69;5011186;28;20533;-80
2023/02/04 07:26:49;;;;;;;29.45;5.97;;;;;;;4.90;100.00;103209.41;5011327;28;20036;-79
2023/02/04 07:29:15;;;;;;;40.10;6.13;;;;;;;4.90;100.00;103211.97;4996139;28;20030;-80
2023/02/04 07:31:40;;;;;;;26.05;5.32;;;;;;;4.90;100.00;103211.97;5006593;28;20033;-78
2023/02/04 07:34:06;;;;;;;22.08;5.65;;;;;;;4.91;100.00;103217.06;5035317;28;20033;-79
2023/02/04 07:36:31;;;;;;;25.20;5.22;;;;;;;4.91;100.00;103211.09;5010385;28;20530;-79
2023/02/04 07:38:57;;;;;;;25.40;4.70;;;;;;;4.92;100.00;103216.19;5024324;28;20034;-79
2023/02/04 07:41:22;;;;;;;25.30;4.88;;;;;;;4.93;100.00;103219.59;5010787;28;20454;-79
2023/02/04 07:43:48;;;;;;;26.48;5.32;;;;;;;4.95;100.00;103222.94;4997764;28;20037;-79
2023/02/04 07:46:13;;;;;;;25.73;6.95;;;;;;;4.96;100.00;103222.03;4989203;28;20040;-79
2023/02/04 07:48:39;;;;;;;34.72;7.40;;;;;;;4.99;100.00;103227.03;5005173;28;20038;-79
2023/02/04 07:51:04;;;;;;;39.17;6.72;;;;;;;5.01;100.00;103230.41;5028499;28;20025;-79
2023/02/04 07:53:30;;;;;;;30.33;5.35;;;;;;;5.03;100.00;103232.03;5010442;28;20034;-78
2023/02/04 07:55:55;;;;;;;31.42;6.05;;;;;;;5.04;100.00;103246.53;5023924;28;20041;-79
2023/02/04 07:58:21;;;;;;;32.55;6.78;;;;;;;5.04;100.00;103249.13;5025185;28;20116;-79
2023/02/04 08:00:47;;;;;;;25.30;5.90;;;;;;;5.04;100.00;103256.00;4997792;28;20044;-80
2023/02/04 08:03:13;;;;;;;34.22;5.93;;;;;;;5.06;100.00;103254.19;4997206;28;20034;-79
2023/02/04 08:05:39;;;;;;;35.47;6.88;;;;;;;5.11;100.00;103260.00;5010517;28;20807;-79
2023/02/04 08:08:04;;;;;;;31.67;6.30;;;;;;;5.13;100.00;103260.78;5021614;28;20063;-79
2023/02/04 08:10:29;;;;;;;37.88;6.80;;;;;;;5.17;100.00;103267.47;5023104;28;20033;-79
2023/02/04 08:12:55;;;;;;;40.72;6.35;;;;;;;5.20;100.00;103258.81;5010751;28;20074;-79
2023/02/04 08:15:20;;;;;;;30.33;5.85;;;;;;;5.29;100.00;103262.75;5014505;28;20032;-79
2023/02/04 08:17:46;;;;;;;40.20;6.63;;;;;;;5.31;100.00;103261.78;5012330;28;20060;-79
2023/02/04 08:20:12;;;;;;;30.73;5.85;;;;;;;5.39;100.00;103267.47;4994932;28;20045;-80
2023/02/04 08:22:37;;;;;;;39.65;7.25;;;;;;;5.39;100.00;103269.22;5011387;28;20040;-79
2023/02/04 08:25:04;;;;;;;41.47;6.70;;;;;;;5.51;100.00;103271.28;4992627;28;20045;-80
2023/02/04 08:27:30;;;;;;;49.38;7.20;;;;;;;5.54;100.00;103273.72;4988121;28;20041;-79
2023/02/04 08:29:55;;;;;;;40.08;6.43;;;;;;;5.61;100.00;103272.59;4998601;28;20095;-79
2023/02/04 08:32:21;;;;;;;42.28;8.20;;;;;;;5.69;100.00;103273.97;4986004;28;20034;-79
2023/02/04 08:34:47;;;;;;;39.22;6.82;;;;;;;5.69;100.00;103277.41;5007290;28;20037;-78
2023/02/04 08:37:13;;;;;;;38.00;8.48;;;;;;;5.83;100.00;103284.56;4994215;28;20085;-80
2023/02/04 08:39:43;;;;;;;32.50;7.15;;;;;;;5.87;100.00;103282.69;5004935;28;20380;-80
2023/02/04 08:42:09;;;;;;;38.38;7.40;;;;;;;5.91;100.00;103295.38;5026950;28;20041;-78
2023/02/04 08:44:34;;;;;;;51.22;8.95;;;;;;;5.95;100.00;103296.06;5024634;28;20080;-79
2023/02/04 08:47:00;;;;;;;34.78;7.57;;;;;;;5.92;100.00;103294.47;4991024;28;20515;-80
2023/02/04 08:49:25;;;;;;;37.58;7.30;;;;;;;5.94;100.00;103302.13;5012880;28;20037;-79
2023/02/04 08:51:51;;;;;;;50.22;8.25;;;;;;;5.90;100.00;103308.31;4995244;28;20029;-79
2023/02/04 08:54:16;;;;;;;34.45;8.57;;;;;;;5.95;100.00;103314.09;4997245;28;20144;-79
2023/02/04 08:56:42;;;;;;;41.50;8.98;;;;;;;5.99;100.00;103319.09;4998329;28;20048;-79
2023/02/04 08:59:07;;;;;;;34.63;8.73;;;;;;;6.15;100.00;103315.88;5028745;28;20026;-78
2023/02/04 09:01:33;;;;;;;43.42;9.00;;;;;;;6.22;100.00;103312.97;5024381;28;20386;-79
2023/02/04 09:03:58;;;;;;;35.50;9.15;;;;;;;6.19;100.00;103320.81;5006350;28;20033;-79
2023/02/04 09:06:23;;;;;;;37.85;9.50;;;;;;;6.24;100.00;103312.91;5010299;28;20052;-79
2023/02/04 09:08:49;;;;;;;38.42;8.52;;;;;;;6.26;100.00;103318.00;5005066;28;20410;-78
2023/02/04 09:11:14;;;;;;;43.35;9.43;;;;;;;6.23;100.00;103318.94;5013113;28;20045;-80
2023/02/04 09:13:40;;;;;;;39.13;8.93;;;;;;;6.30;100.00;103324.69;5004120;28;20042;-80
2023/02/04 09:16:06;;;;;;;58.35;10.25;;;;;;;6.35;100.00;103322.75;4997123;28;20040;-80
2023/02/04 09:18:31;;;;;;;46.38;9.18;;;;;;;6.25;100.00;103330.03;5023383;28;20037;-80
2023/02/04 09:20:57;;;;;;;49.10;10.93;;;;;;;6.36;100.00;103320.09;5009771;28;20049;-80
2023/02/04 09:23:23;;;;;;;53.28;11.07;;;;;;;6.36;100.00;103327.00;5009405;28;20364;-80
2023/02/04 09:25:49;;;;;;;49.80;11.30;;;;;;;6.39;100.00;103325.13;5010103;28;20044;-80
2023/02/04 09:28:15;;;;;;;44.50;11.38;;;;;;;6.55;100.00;103327.03;5012267;28;20041;-80
2023/02/04 09:30:42;;;;;;;47.53;10.43;;;;;;;6.58;100.00;103327.72;4998826;28;20037;-81
2023/02/04 09:33:10;;;;;;;39.58;9.95;;;;;;;6.61;100.00;103324.16;4996737;28;20041;-79
2023/02/04 09:35:36;;;;;;;47.55;11.05;;;;;;;6.83;100.00;103331.78;5012065;28;20036;-80
2023/02/04 09:38:02;;;;;;;45.40;10.32;;;;;;;6.82;100.00;103324.97;4993919;28;20490;-80
2023/02/04 09:40:30;;;;;;;44.72;11.52;;;;;;;6.82;100.00;103333.53;5019876;28;20029;-80
2023/02/04 09:42:57;;;;;;;35.03;10.65;;;;;;;6.93;100.00;103322.72;4992585;28;20579;-79
2023/02/04 09:45:27;;;;;;;49.67;10.90;;;;;;;6.98;100.00;103323.34;5006321;28;20030;-79
2023/02/04 09:47:55;;;;;;;46.38;10.30;;;;;;;6.99;100.00;103322.44;5013386;28;20029;-80
2023/02/04 09:50:25;;;;;;;54.05;10.57;;;;;;;6.94;100.00;103324.38;5016395;28;20037;-80
2023/02/04 09:52:54;;;;;;;45.38;10.15;;;;;;;6.93;100.00;103330.47;5013639;28;20057;-80
2023/02/04 09:55:23;;;;;;;40.17;10.18;;;;;;;6.91;100.00;103324.53;5012122;28;20544;-81
2023/02/04 09:57:49;;;;;;;51.55;11.02;;;;;;;6.89;100.00;103328.91;5010726;28;20057;-80
2023/02/04 10:00:18;;;;;;;39.15;10.18;;;;;;;6.94;100.00;103337.28;5008165;28;20080;-81
2023/02/04 10:02:43;;;;;;;47.50;10.10;;;;;;;7.11;100.00;103344.25;5005680;28;20041;-77
2023/02/04 10:05:14;;;;;;;42.28;10.30;;;;;;;7.21;100.00;103348.09;5008262;28;20068;-77
2023/02/04 10:07:40;;;;;;;44.80;8.85;;;;;;;7.21;100.00;103342.06;5005638;28;20045;-78
2023/02/04 10:10:06;;;;;;;49.83;10.15;;;;;;;7.38;100.00;103349.00;5020818;28;20103;-75
2023/02/04 10:12:31;;;;;;;48.10;10.52;;;;;;;7.41;100.00;103349.72;4988992;28;20397;-80
2023/02/04 10:14:59;;;;;;;40.25;8.43;;;;;;;7.46;100.00;103356.38;4992404;28;20474;-81
2023/02/04 10:17:25;;;;;;;42.13;8.40;;;;;;;7.43;100.00;103352.22;5006741;28;20053;-80
2023/02/04 10:19:51;;;;;;;36.83;8.63;;;;;;;7.51;100.00;103355.25;4989321;28;20183;-78
2023/02/04 10:22:19;;;;;;;44.78;9.50;;;;;;;7.40;100.00;103355.78;5010571;28;20076;-80
2023/02/04 10:24:44;;;;;;;49.85;8.68;;;;;;;7.44;100.00;103345.31;5006690;28;20069;-80
2023/02/04 10:27:14;;;;;;;48.90;9.65;;;;;;;7.48;100.00;103346.81;5010689;28;20045;-80
2023/02/04 10:29:41;;;;;;;55.50;10.40;;;;;;;7.53;100.00;103339.69;5008073;28;20686;-80
2023/02/04 10:32:25;;;;;;;35.17;8.38;;;;;;;7.67;100.00;103337.28;5003162;28;20037;-80
2023/02/04 10:34:57;;;;;;;41.40;7.97;;;;;;;7.58;100.00;103340.31;5008977;28;20108;-80
2023/02/04 10:37:23;;;;;;;35.83;8.50;;;;;;;7.50;100.00;103338.13;4991967;28;20045;-79
2023/02/04 10:39:48;;;;;;;37.88;8.35;;;;;;;7.48;100.00;103342.53;4988470;28;20397;-80
2023/02/04 10:42:25;;;;;;;35.97;7.40;;;;;;;7.59;100.00;103340.25;5009738;28;20045;-81
2023/02/04 10:44:51;;;;;;;40.00;9.00;;;;;;;7.63;100.00;103340.94;5010636;28;20038;-79
2023/02/04 10:47:18;;;;;;;41.58;8.05;;;;;;;7.77;100.00;103335.91;5011704;28;20026;-80
2023/02/04 10:49:55;;;;;;;35.53;7.00;;;;;;;7.84;99.28;103335.63;5015975;28;20029;-81
2023/02/04 10:52:24;;;;;;;44.15;7.90;;;;;;;7.89;98.97;103336.22;5024951;28;20137;-81
2023/02/04 10:54:49;;;;;;;45.08;7.45;;;;;;;7.93;97.83;103336.00;5008742;28;20037;-81
2023/02/04 10:57:25;;;;;;;46.30;8.48;;;;;;;7.95;97.22;103333.34;4987618;28;20053;-81
2023/02/04 10:59:54;;;;;;;44.05;8.02;;;;;;;7.97;96.44;103334.94;4997046;28;20042;-81
2023/02/04 11:02:28;;;;;;;52.40;9.05;;;;;;;8.07;95.36;103334.47;5011222;28;20039;-80
2023/02/04 11:04:54;;;;;;;54.22;8.25;;;;;;;8.11;94.45;103338.56;5020319;28;20064;-81
2023/02/04 11:07:21;;;;;;;30.88;6.57;;;;;;;8.13;95.47;103337.56;4997177;28;20037;-81
2023/02/04 11:09:47;;;;;;;33.17;7.65;;;;;;;8.16;95.65;103347.75;5008028;28;20041;-80
2023/02/04 11:12:21;;;;;;;33.80;5.97;;;;;;;8.22;96.69;103354.38;5003581;28;20107;-81
2023/02/04 11:14:56;;;;;;;41.25;7.55;;;;;;;8.15;96.19;103345.25;5012869;28;20103;-81